Search for airport 
image banner adimage banner ad
image banner ad

WBKR - Ranau

Located in , Malaysia

ICAO - WBKR, IATA - RNU

Data provided by Airmate  

General information

Coordinates: N5°57'29" E116°40'25"
Elevation is 1800 feet MSL.
 
Rated:
View ratings: [VIEW]


View others Airports in Sabah

Operational data

Open for public use
Current time UTC:
Current local time:
Weather at : WBKK - Kota Kinabalu International ( 69 km )
METAR: WBKK 181100Z VRB02KT 8000 FEW015 SCT140 BKN270 29/25 Q1010 NOSIG
TAF: TAF WBKK 180500Z 1806/1906 24005KT 9000 HZ FEW015 BECMG 1811/1813 11005KT
View NOTAMs / SUP AIP / TFR affecting this airport [VIEW]
Communications frequencies: [VIEW]

Runways:

RWY identifierQFULength (ft)Width (ft)SurfaceLDA (ft)
0300
2100

Airport contact information

Address: Malaysia

Satellite view of WBKR